Time;durP1;ratioP1;P1;durP2;ratioP2;P2;SDS_P1;SDS_P2;PMS_P1;PMS_P2;Temp;Humidity;BMP_temperature;BMP_pressure;BME280_temperature;BME280_humidity;BME280_pressure;Samples;Min_cycle;Max_cycle;Signal;HPM_P1;HPM_P2
2021/11/24 00:02:18;;;;;;;13.40;7.20;;;22.20;86.20;;;;;;1849130;76;21171;-75
2021/11/24 00:04:48;;;;;;;20.15;9.40;;;22.20;86.20;;;;;;1878659;74;21623;-71
2021/11/24 00:07:20;;;;;;;17.30;9.60;;;22.20;86.30;;;;;;1886655;74;22041;-73
2021/11/24 00:09:51;;;;;;;16.32;8.48;;;22.20;86.30;;;;;;1895457;74;21064;-73
2021/11/24 00:12:22;;;;;;;12.65;7.75;;;22.20;86.30;;;;;;1888246;74;21264;-73
2021/11/24 00:14:54;;;;;;;13.25;6.95;;;22.30;87.10;;;;;;1904359;74;21111;-74
2021/11/24 00:17:24;;;;;;;11.75;7.03;;;22.30;86.00;;;;;;1891388;74;21115;-74
2021/11/24 00:19:55;;;;;;;14.33;7.37;;;22.30;85.60;;;;;;1881940;74;21595;-74
2021/11/24 00:22:26;;;;;;;13.72;6.83;;;22.30;85.40;;;;;;1883451;74;21164;-71
2021/11/24 00:24:57;;;;;;;15.05;7.97;;;22.30;85.60;;;;;;1899233;74;21126;-73
2021/11/24 00:27:28;;;;;;;18.02;11.05;;;22.40;85.70;;;;;;1880340;74;21211;-73
2021/11/24 00:29:59;;;;;;;11.35;6.25;;;22.40;85.50;;;;;;1867160;76;21128;-74
2021/11/24 00:32:29;;;;;;;11.28;7.60;;;22.40;84.70;;;;;;1888758;74;21170;-74
2021/11/24 00:35:01;;;;;;;9.28;5.72;;;22.40;83.90;;;;;;1880693;74;21104;-73
2021/11/24 00:37:31;;;;;;;9.13;5.62;;;22.50;83.70;;;;;;1893658;74;21245;-71
2021/11/24 00:40:06;;;;;;;11.95;7.08;;;22.40;83.60;;;;;;1903184;74;21158;-72
2021/11/24 00:42:37;;;;;;;11.25;6.58;;;22.50;83.50;;;;;;1896326;74;21146;-72
2021/11/24 00:45:08;;;;;;;9.08;5.40;;;22.50;83.20;;;;;;1899647;74;21418;-71
2021/11/24 00:47:39;;;;;;;11.22;6.05;;;22.50;83.10;;;;;;1894273;74;21122;-71
2021/11/24 00:50:10;;;;;;;8.63;5.03;;;22.50;82.50;;;;;;1888380;74;21153;-72
2021/11/24 00:52:41;;;;;;;7.37;4.53;;;22.60;82.70;;;;;;1899069;75;21140;-72
2021/11/24 00:55:12;;;;;;;8.83;4.45;;;22.50;82.50;;;;;;1899162;74;21150;-72
2021/11/24 00:57:43;;;;;;;6.58;4.37;;;22.60;82.50;;;;;;1896216;74;21170;-72
2021/11/24 01:00:16;;;;;;;6.67;4.47;;;22.60;82.10;;;;;;1890144;74;21095;-72
2021/11/24 01:02:47;;;;;;;6.28;3.90;;;22.60;82.00;;;;;;1885165;74;21168;-71
2021/11/24 01:05:18;;;;;;;5.83;4.10;;;22.60;81.60;;;;;;1895509;74;21119;-72
2021/11/24 01:07:49;;;;;;;7.72;4.20;;;22.70;81.60;;;;;;1845598;76;21171;-71
2021/11/24 01:10:20;;;;;;;5.50;4.05;;;22.70;81.90;;;;;;1884997;74;21115;-71
2021/11/24 01:12:51;;;;;;;7.70;4.22;;;22.70;81.60;;;;;;1879982;74;21069;-71
2021/11/24 01:15:23;;;;;;;9.85;6.08;;;22.80;81.80;;;;;;1886865;74;21131;-71
2021/11/24 01:17:54;;;;;;;6.70;4.25;;;22.70;81.90;;;;;;1900205;74;21131;-71
2021/11/24 01:20:24;;;;;;;5.75;4.28;;;22.80;81.70;;;;;;1890573;74;21638;-72
2021/11/24 01:22:55;;;;;;;6.83;4.40;;;22.90;81.40;;;;;;1890938;74;21126;-71
2021/11/24 01:25:26;;;;;;;9.50;4.17;;;22.90;81.70;;;;;;1894860;74;21164;-71
2021/11/24 01:27:58;;;;;;;5.67;4.03;;;22.90;81.10;;;;;;1890060;74;21675;-71
2021/11/24 01:30:29;;;;;;;6.25;3.83;;;23.00;80.60;;;;;;1884705;74;21116;-71
2021/11/24 01:33:00;;;;;;;6.33;4.08;;;23.00;80.30;;;;;;1884088;74;21598;-71
2021/11/24 01:35:31;;;;;;;7.15;4.55;;;23.10;79.80;;;;;;1844396;76;21603;-73
2021/11/24 01:38:02;;;;;;;8.53;4.85;;;23.10;79.50;;;;;;1888684;74;21119;-71
2021/11/24 01:40:52;;;;;;;7.10;4.08;;;23.20;79.70;;;;;;1896139;74;21107;-72
2021/11/24 01:43:23;;;;;;;7.97;4.80;;;23.20;79.30;;;;;;1835676;77;21158;-72
2021/11/24 01:45:54;;;;;;;6.33;4.60;;;23.20;79.10;;;;;;1857079;75;21654;-72
2021/11/24 01:48:27;;;;;;;6.17;3.72;;;23.30;79.10;;;;;;1857769;75;21147;-71
2021/11/24 01:50:58;;;;;;;7.70;4.25;;;23.30;78.90;;;;;;1863172;75;21172;-70
2021/11/24 01:53:30;;;;;;;5.42;3.90;;;23.30;79.00;;;;;;1885626;74;21091;-70
2021/11/24 01:56:01;;;;;;;5.28;3.77;;;23.30;79.10;;;;;;1884666;74;21539;-72
2021/11/24 01:58:35;;;;;;;7.72;4.70;;;23.40;78.20;;;;;;1893939;74;21150;-72
2021/11/24 02:01:06;;;;;;;6.12;4.55;;;23.50;78.10;;;;;;1894974;75;21098;-72
2021/11/24 02:03:37;;;;;;;7.72;4.37;;;23.60;77.30;;;;;;1883330;74;21210;-72
2021/11/24 02:06:13;;;;;;;5.95;3.92;;;23.70;76.70;;;;;;1897312;74;21056;-72
2021/11/24 02:08:45;;;;;;;7.75;4.30;;;23.80;75.70;;;;;;1896523;74;21141;-72
2021/11/24 02:11:13;;;;;;;9.05;4.37;;;23.80;76.10;;;;;;1887403;74;21110;-72
2021/11/24 02:13:45;;;;;;;7.50;4.70;;;23.90;76.20;;;;;;1881655;74;21199;-72
2021/11/24 02:16:19;;;;;;;5.50;3.58;;;23.90;75.70;;;;;;1879219;74;21204;-73
2021/11/24 02:18:50;;;;;;;14.33;7.53;;;23.90;75.40;;;;;;1857336;76;21156;-73
2021/11/24 02:21:21;;;;;;;6.30;4.53;;;24.00;75.20;;;;;;1875990;74;21142;-72
2021/11/24 02:23:52;;;;;;;6.85;4.20;;;24.10;75.40;;;;;;1893672;75;21252;-71
2021/11/24 02:26:25;;;;;;;6.25;4.03;;;24.10;74.40;;;;;;1881802;75;21147;-72
2021/11/24 02:28:56;;;;;;;6.20;4.65;;;24.10;74.30;;;;;;1888920;74;21578;-72
2021/11/24 02:31:28;;;;;;;9.85;4.70;;;24.10;74.50;;;;;;1888900;75;21140;-73
2021/11/24 02:33:59;;;;;;;6.53;4.55;;;24.10;74.30;;;;;;1885820;74;21129;-73
2021/11/24 02:36:31;;;;;;;6.42;4.87;;;24.20;74.30;;;;;;1894607;74;21107;-73
2021/11/24 02:39:02;;;;;;;9.60;5.25;;;24.20;73.90;;;;;;1897670;74;21111;-72
2021/11/24 02:41:33;;;;;;;10.25;6.03;;;24.20;74.30;;;;;;1886477;75;21181;-72
2021/11/24 02:44:06;;;;;;;7.85;5.80;;;24.20;74.10;;;;;;1884815;74;21204;-72
2021/11/24 02:46:37;;;;;;;9.08;5.60;;;24.20;74.40;;;;;;1879173;75;21143;-71
2021/11/24 02:49:08;;;;;;;8.05;5.03;;;24.30;74.00;;;;;;1904846;74;21150;-72
2021/11/24 02:51:39;;;;;;;11.12;5.08;;;24.30;73.90;;;;;;1890456;75;21210;-72
2021/11/24 02:54:10;;;;;;;7.58;5.17;;;24.40;74.20;;;;;;1881495;74;21602;-72
2021/11/24 02:56:42;;;;;;;8.45;5.17;;;24.40;74.00;;;;;;1879636;74;21087;-72
2021/11/24 02:59:13;;;;;;;7.12;5.50;;;24.50;74.30;;;;;;1865236;75;21182;-72
2021/11/24 03:01:44;;;;;;;8.33;4.30;;;24.50;73.80;;;;;;1836241;77;21129;-72
2021/11/24 03:04:15;;;;;;;7.17;5.03;;;24.60;74.00;;;;;;1840639;77;21154;-71
2021/11/24 03:06:46;;;;;;;7.20;5.10;;;24.70;73.60;;;;;;1820285;77;21166;-71
2021/11/24 03:09:16;;;;;;;7.37;4.95;;;24.80;72.60;;;;;;1858310;76;21617;-73
2021/11/24 03:11:47;;;;;;;9.80;5.20;;;24.90;72.40;;;;;;1893885;74;21660;-73
2021/11/24 03:14:19;;;;;;;7.37;4.97;;;25.00;72.10;;;;;;1888192;74;21586;-72
2021/11/24 03:16:51;;;;;;;7.22;4.58;;;25.10;71.70;;;;;;1885225;74;21126;-72
2021/11/24 03:19:23;;;;;;;6.67;4.40;;;25.10;71.50;;;;;;1890365;75;21122;-73
2021/11/24 03:21:54;;;;;;;6.05;4.42;;;25.20;71.60;;;;;;1897874;74;21202;-73
2021/11/24 03:24:25;;;;;;;5.87;4.55;;;25.30;71.30;;;;;;1886184;74;21154;-73
2021/11/24 03:26:56;;;;;;;8.48;5.05;;;25.30;71.20;;;;;;1890520;74;21138;-73
2021/11/24 03:29:26;;;;;;;7.10;4.40;;;25.40;70.40;;;;;;1889998;74;21571;-74
2021/11/24 03:31:57;;;;;;;8.20;4.97;;;25.50;70.90;;;;;;1890442;74;22336;-73
2021/11/24 03:34:28;;;;;;;6.85;5.00;;;25.60;70.40;;;;;;1890314;74;21117;-73
2021/11/24 03:36:59;;;;;;;5.92;4.70;;;25.70;70.30;;;;;;1894735;75;21621;-72
2021/11/24 03:39:30;;;;;;;6.53;4.40;;;25.80;69.40;;;;;;1880511;74;21593;-72
2021/11/24 03:42:00;;;;;;;9.55;4.87;;;25.90;69.70;;;;;;1887188;75;21115;-72
2021/11/24 03:44:31;;;;;;;9.75;4.80;;;25.90;69.20;;;;;;1881888;75;21617;-71
2021/11/24 03:47:02;;;;;;;8.08;4.72;;;26.10;68.90;;;;;;1885721;75;21174;-72
2021/11/24 03:49:32;;;;;;;5.55;4.08;;;26.20;68.60;;;;;;1857140;75;21177;-72
2021/11/24 03:52:04;;;;;;;9.43;4.55;;;26.30;67.50;;;;;;1817596;77;21114;-72
2021/11/24 03:54:36;;;;;;;8.13;5.12;;;26.40;67.10;;;;;;1882492;75;21537;-72
2021/11/24 03:57:07;;;;;;;6.05;4.83;;;26.50;66.80;;;;;;1883301;75;21571;-73
2021/11/24 03:59:38;;;;;;;7.80;4.40;;;26.60;66.50;;;;;;1886106;75;21609;-73
2021/11/24 04:02:12;;;;;;;6.97;4.33;;;26.70;66.30;;;;;;1877854;75;22321;-72
2021/11/24 04:04:44;;;;;;;7.42;4.62;;;26.80;65.80;;;;;;1884585;75;21143;-72
2021/11/24 04:07:14;;;;;;;5.83;4.22;;;26.90;65.70;;;;;;1889003;75;21193;-73
2021/11/24 04:09:47;;;;;;;6.55;4.45;;;27.00;65.80;;;;;;1884138;74;21234;-72
2021/11/24 04:12:18;;;;;;;8.40;4.20;;;27.10;65.50;;;;;;1882399;75;21079;-72
2021/11/24 04:14:50;;;;;;;5.95;4.65;;;27.20;64.50;;;;;;1890353;75;21095;-72
2021/11/24 04:17:21;;;;;;;5.97;4.80;;;27.20;64.40;;;;;;1887774;75;21217;-73
2021/11/24 04:19:54;;;;;;;6.20;4.40;;;27.30;64.10;;;;;;1875699;75;21184;-73
2021/11/24 04:22:26;;;;;;;6.35;4.47;;;27.30;64.10;;;;;;1884979;75;21147;-74
2021/11/24 04:24:57;;;;;;;7.60;4.22;;;27.40;63.90;;;;;;1884588;75;21252;-73
2021/11/24 04:27:28;;;;;;;7.08;4.42;;;27.40;64.00;;;;;;1877141;75;21084;-70
2021/11/24 04:29:59;;;;;;;6.37;4.80;;;27.50;64.00;;;;;;1882844;75;21159;-72
2021/11/24 04:32:30;;;;;;;6.87;4.40;;;27.60;63.50;;;;;;1880214;75;22234;-72
2021/11/24 04:35:00;;;;;;;5.83;4.55;;;27.80;63.80;;;;;;1878682;75;21189;-72
2021/11/24 04:37:32;;;;;;;9.10;4.65;;;27.90;63.60;;;;;;1881718;75;21237;-72
2021/11/24 04:40:04;;;;;;;6.95;4.60;;;28.00;63.90;;;;;;1889314;75;21649;-73
2021/11/24 04:42:37;;;;;;;6.45;5.12;;;28.10;62.30;;;;;;1902110;75;21156;-72
2021/11/24 04:45:07;;;;;;;6.35;5.03;;;28.10;61.80;;;;;;1879080;75;21159;-73
2021/11/24 04:47:38;;;;;;;7.35;5.12;;;28.20;62.20;;;;;;1884417;75;21075;-72
2021/11/24 04:50:09;;;;;;;6.08;4.75;;;28.30;61.60;;;;;;1877622;75;21663;-72
2021/11/24 04:52:40;;;;;;;7.53;5.10;;;28.40;61.40;;;;;;1883569;75;21130;-72
2021/11/24 04:55:13;;;;;;;6.67;4.05;;;28.40;60.80;;;;;;1884528;75;21146;-72
2021/11/24 04:57:45;;;;;;;6.12;4.42;;;28.50;61.10;;;;;;1882572;75;21212;-72
2021/11/24 05:00:19;;;;;;;7.37;4.42;;;28.50;61.00;;;;;;1881525;75;21091;-71
2021/11/24 05:02:51;;;;;;;9.30;4.50;;;28.60;60.90;;;;;;1879855;75;21143;-72
2021/11/24 05:05:27;;;;;;;8.25;5.15;;;28.60;60.30;;;;;;1878610;75;21152;-72
2021/11/24 05:07:55;;;;;;;6.47;4.50;;;28.70;60.50;;;;;;1865822;75;21196;-71
2021/11/24 05:10:27;;;;;;;7.17;4.53;;;28.80;60.30;;;;;;1887494;74;21083;-72
2021/11/24 05:12:58;;;;;;;6.15;4.42;;;28.80;60.40;;;;;;1887048;74;21125;-73
2021/11/24 05:15:31;;;;;;;9.48;4.60;;;28.90;59.30;;;;;;1889054;75;21084;-72
2021/11/24 05:18:05;;;;;;;6.92;4.45;;;29.10;59.60;;;;;;1889192;74;21681;-71
2021/11/24 05:20:37;;;;;;;6.60;4.80;;;29.10;58.90;;;;;;1867434;75;21106;-72
2021/11/24 05:23:11;;;;;;;8.08;4.58;;;29.10;59.00;;;;;;1855720;75;21162;-72
2021/11/24 05:25:39;;;;;;;10.65;4.62;;;29.10;58.70;;;;;;1854658;75;21193;-72
2021/11/24 05:28:10;;;;;;;5.83;4.25;;;29.20;59.10;;;;;;1854321;76;21147;-72
2021/11/24 05:30:41;;;;;;;8.30;4.85;;;29.20;58.80;;;;;;1878363;75;21161;-71
2021/11/24 05:33:12;;;;;;;9.78;5.15;;;29.20;58.90;;;;;;1873870;75;21155;-71
2021/11/24 05:35:43;;;;;;;8.68;5.00;;;29.30;58.70;;;;;;1904102;73;21139;-71
2021/11/24 05:38:14;;;;;;;9.10;5.03;;;29.30;59.20;;;;;;1913276;73;21193;-71
2021/11/24 05:40:45;;;;;;;6.87;4.67;;;29.30;58.50;;;;;;1910005;73;21087;-71
2021/11/24 05:43:20;;;;;;;7.30;4.62;;;29.40;58.60;;;;;;1908100;73;21173;-71
2021/11/24 05:48:21;;;;;;;5.80;4.15;;;29.40;58.00;;;;;;1913175;73;21137;-71
2021/11/24 05:50:53;;;;;;;5.83;4.65;;;29.40;58.40;;;;;;1909263;73;21160;-72
2021/11/24 05:53:24;;;;;;;6.05;4.92;;;29.30;58.30;;;;;;1906577;73;21656;-72
2021/11/24 05:55:55;;;;;;;7.90;5.00;;;29.30;58.60;;;;;;1909865;73;21155;-71
2021/11/24 05:58:27;;;;;;;8.10;4.55;;;29.30;58.70;;;;;;1887097;74;21078;-73
2021/11/24 06:00:58;;;;;;;7.35;4.40;;;29.30;58.80;;;;;;1853280;76;21064;-72
2021/11/24 06:03:29;;;;;;;8.25;3.98;;;29.30;58.80;;;;;;1893264;74;21130;-72
2021/11/24 06:06:03;;;;;;;7.05;4.47;;;29.30;58.50;;;;;;1896756;74;21637;-72
2021/11/24 06:08:38;;;;;;;10.60;4.83;;;29.30;58.50;;;;;;1891475;74;21451;-72
2021/11/24 06:11:10;;;;;;;6.35;4.42;;;29.40;58.50;;;;;;1911744;73;21682;-71
2021/11/24 06:13:43;;;;;;;5.70;4.78;;;29.40;58.40;;;;;;1910664;73;21794;-71
2021/11/24 06:16:20;;;;;;;7.08;4.95;;;29.40;58.30;;;;;;1912578;73;21635;-71
2021/11/24 06:18:54;;;;;;;6.28;4.55;;;29.40;58.60;;;;;;1911844;73;21089;-72
2021/11/24 06:21:25;;;;;;;8.00;4.92;;;29.50;58.00;;;;;;1908904;73;21202;-71
2021/11/24 06:23:55;;;;;;;7.10;4.83;;;29.50;58.40;;;;;;1915633;73;21539;-72
2021/11/24 06:26:26;;;;;;;6.55;4.70;;;29.50;58.30;;;;;;1912208;73;21139;-70
2021/11/24 06:28:57;;;;;;;5.95;4.97;;;29.50;58.30;;;;;;1906921;73;21701;-71
2021/11/24 06:31:29;;;;;;;7.03;4.53;;;29.50;58.40;;;;;;1906083;73;21078;-71
2021/11/24 06:34:00;;;;;;;8.23;4.90;;;29.50;58.30;;;;;;1912590;73;21672;-72
2021/11/24 06:36:32;;;;;;;6.55;5.12;;;29.50;58.40;;;;;;1905675;73;21541;-72
2021/11/24 06:39:05;;;;;;;8.18;4.62;;;29.50;58.60;;;;;;1887584;75;21220;-73
2021/11/24 06:41:36;;;;;;;6.35;4.20;;;29.50;58.50;;;;;;1855802;75;21646;-71
2021/11/24 06:44:08;;;;;;;8.83;5.60;;;29.50;58.70;;;;;;1877438;75;22006;-71
2021/11/24 06:46:39;;;;;;;6.70;5.10;;;29.50;58.60;;;;;;1846810;75;21095;-72
2021/11/24 06:49:10;;;;;;;6.05;4.60;;;29.50;58.30;;;;;;1867221;75;21135;-72
2021/11/24 06:51:41;;;;;;;6.55;5.08;;;29.50;57.70;;;;;;1862593;76;21167;-70
2021/11/24 06:54:12;;;;;;;8.48;4.85;;;29.50;58.00;;;;;;1863717;76;21271;-71
2021/11/24 06:56:45;;;;;;;6.33;5.00;;;29.60;58.50;;;;;;1858967;76;21767;-71
2021/11/24 06:59:16;;;;;;;6.53;4.87;;;29.60;58.20;;;;;;1869066;75;21494;-71
2021/11/24 07:01:47;;;;;;;7.28;5.08;;;29.60;58.60;;;;;;1826235;77;21169;-71
2021/11/24 07:04:18;;;;;;;6.37;4.90;;;29.60;57.90;;;;;;1850995;76;21694;-71
2021/11/24 07:06:49;;;;;;;6.55;5.17;;;29.70;58.30;;;;;;1841041;76;21221;-72
2021/11/24 07:09:22;;;;;;;8.80;4.87;;;29.70;58.50;;;;;;1827711;77;21479;-71
2021/11/24 07:11:51;;;;;;;6.33;4.87;;;29.70;58.00;;;;;;1824376;77;21518;-71
2021/11/24 07:14:22;;;;;;;5.72;4.85;;;29.60;58.10;;;;;;1853281;76;21189;-70
2021/11/24 07:16:53;;;;;;;5.20;4.62;;;29.70;58.20;;;;;;1854522;76;21134;-70
2021/11/24 07:19:24;;;;;;;6.03;5.08;;;29.70;58.50;;;;;;1851016;76;21039;-71
2021/11/24 07:21:55;;;;;;;8.60;5.85;;;29.70;58.10;;;;;;1853339;76;21565;-71
2021/11/24 07:24:29;;;;;;;9.35;5.00;;;29.70;57.80;;;;;;1853393;76;21761;-71
2021/11/24 07:26:58;;;;;;;9.20;4.95;;;29.70;58.50;;;;;;1860643;76;21171;-71
2021/11/24 07:29:29;;;;;;;6.60;5.22;;;29.70;58.40;;;;;;1875172;76;21132;-72
2021/11/24 07:32:00;;;;;;;8.23;5.60;;;29.70;58.20;;;;;;1854977;76;21214;-72
2021/11/24 07:34:31;;;;;;;7.00;4.87;;;29.70;58.20;;;;;;1839029;76;21081;-73
2021/11/24 07:37:01;;;;;;;6.20;4.65;;;29.70;58.50;;;;;;1839133;76;21173;-72
2021/11/24 07:39:32;;;;;;;7.87;5.50;;;29.70;58.20;;;;;;1841955;76;21236;-73
2021/11/24 07:42:04;;;;;;;5.90;4.25;;;29.70;58.10;;;;;;1858095;76;21117;-71
2021/11/24 07:44:39;;;;;;;6.50;4.20;;;29.70;57.80;;;;;;1860578;74;21098;-71
2021/11/24 07:47:12;;;;;;;5.95;4.45;;;29.70;58.20;;;;;;1861848;74;21220;-72
2021/11/24 07:49:43;;;;;;;6.78;4.53;;;29.60;58.50;;;;;;1885191;75;21137;-72
2021/11/24 07:52:14;;;;;;;5.90;4.50;;;29.60;58.50;;;;;;1885039;74;21594;-74
2021/11/24 07:54:45;;;;;;;11.18;5.42;;;29.60;58.40;;;;;;1908065;73;21232;-73
2021/11/24 07:57:18;;;;;;;6.60;4.58;;;29.60;58.40;;;;;;1888714;75;21167;-73
2021/11/24 07:59:51;;;;;;;7.60;4.35;;;29.60;59.10;;;;;;1859751;76;21264;-71
2021/11/24 08:02:23;;;;;;;7.58;4.90;;;29.60;59.10;;;;;;1864917;76;21158;-73
2021/11/24 08:04:55;;;;;;;9.05;5.03;;;29.50;58.80;;;;;;1898967;73;21599;-75
2021/11/24 08:07:28;;;;;;;6.25;4.42;;;29.50;58.80;;;;;;1905042;74;21139;-74
2021/11/24 08:10:01;;;;;;;9.33;4.40;;;29.50;58.80;;;;;;1886917;75;21580;-74
2021/11/24 08:12:36;;;;;;;4.92;4.22;;;29.50;59.10;;;;;;1853998;76;21062;-71
2021/11/24 08:15:08;;;;;;;5.83;4.40;;;29.40;59.00;;;;;;1916878;73;21177;-72
2021/11/24 08:17:40;;;;;;;7.00;5.33;;;29.40;59.20;;;;;;1917952;73;21122;-72
2021/11/24 08:20:11;;;;;;;6.25;4.97;;;29.40;59.10;;;;;;1883196;76;21297;-72
2021/11/24 08:22:42;;;;;;;6.92;5.08;;;29.40;59.10;;;;;;1883678;74;21189;-72
2021/11/24 08:25:13;;;;;;;9.33;5.17;;;29.40;58.90;;;;;;1903625;74;21194;-71
2021/11/24 08:27:45;;;;;;;8.25;4.53;;;29.40;58.80;;;;;;1878639;75;21117;-70
2021/11/24 08:30:16;;;;;;;5.40;4.33;;;29.30;59.10;;;;;;1845181;76;21146;-72
2021/11/24 08:32:48;;;;;;;5.97;4.05;;;29.30;59.20;;;;;;1895895;74;21122;-72
2021/11/24 08:35:20;;;;;;;7.28;4.92;;;29.30;59.20;;;;;;1881701;75;21138;-72
2021/11/24 08:37:55;;;;;;;8.18;5.33;;;29.30;59.60;;;;;;1899225;75;21119;-74
2021/11/24 08:40:23;;;;;;;6.62;4.50;;;29.30;59.70;;;;;;1904904;73;21641;-74
2021/11/24 08:42:54;;;;;;;11.97;6.80;;;29.30;59.40;;;;;;1907848;74;21080;-72
2021/11/24 08:45:25;;;;;;;7.10;4.70;;;29.20;59.90;;;;;;1911415;73;21673;-71
2021/11/24 08:47:56;;;;;;;9.55;5.22;;;29.20;59.70;;;;;;1904379;74;21212;-72
2021/11/24 08:50:26;;;;;;;8.75;4.97;;;29.20;59.60;;;;;;1912308;73;21202;-70
2021/11/24 08:52:58;;;;;;;7.50;4.45;;;29.20;59.30;;;;;;1910873;74;21127;-71
2021/11/24 08:55:29;;;;;;;10.05;4.87;;;29.20;59.60;;;;;;1883843;75;21099;-71
2021/11/24 08:58:00;;;;;;;7.45;4.80;;;29.20;60.00;;;;;;1830683;77;21226;-71
2021/11/24 09:00:31;;;;;;;7.28;4.40;;;29.20;59.90;;;;;;1877731;75;21143;-71
2021/11/24 09:03:02;;;;;;;7.17;4.87;;;29.10;59.60;;;;;;1871183;75;21207;-72
2021/11/24 09:05:34;;;;;;;6.42;4.65;;;29.20;59.60;;;;;;1880312;75;21084;-70
2021/11/24 09:08:05;;;;;;;8.45;5.00;;;29.10;59.70;;;;;;1877586;75;21124;-72
2021/11/24 09:10:38;;;;;;;8.83;5.40;;;29.20;59.50;;;;;;1868594;76;21159;-70
2021/11/24 09:13:09;;;;;;;7.60;5.53;;;29.20;59.80;;;;;;1907005;73;21362;-72
2021/11/24 09:15:40;;;;;;;7.67;5.62;;;29.10;59.90;;;;;;1868038;76;21075;-71
2021/11/24 09:18:17;;;;;;;7.53;5.25;;;29.10;59.90;;;;;;1837988;78;21142;-70
2021/11/24 09:20:46;;;;;;;7.92;5.25;;;29.10;60.00;;;;;;1859701;76;21210;-69
2021/11/24 09:23:19;;;;;;;8.88;6.12;;;29.10;59.90;;;;;;1867824;76;21138;-71
2021/11/24 09:25:53;;;;;;;8.00;5.17;;;29.00;59.80;;;;;;1859076;76;21131;-70
2021/11/24 09:28:29;;;;;;;9.53;5.67;;;29.00;59.70;;;;;;1860844;75;21209;-71
2021/11/24 09:30:58;;;;;;;9.63;6.25;;;29.00;59.90;;;;;;1859372;76;21063;-69
2021/11/24 09:33:30;;;;;;;9.68;5.92;;;28.90;60.00;;;;;;1858982;76;21148;-72
2021/11/24 09:36:01;;;;;;;8.65;6.20;;;28.90;60.10;;;;;;1859522;76;21075;-72
2021/11/24 09:38:33;;;;;;;7.83;6.12;;;28.80;60.00;;;;;;1872954;75;21676;-72
2021/11/24 09:41:06;;;;;;;8.25;6.00;;;28.80;60.40;;;;;;1907367;73;22097;-72
2021/11/24 09:43:40;;;;;;;12.88;5.90;;;28.70;60.60;;;;;;1906418;74;21236;-70
2021/11/24 09:46:12;;;;;;;7.92;6.45;;;28.70;60.80;;;;;;1876448;75;21637;-72
2021/11/24 09:48:45;;;;;;;11.63;7.67;;;28.70;61.00;;;;;;1911103;74;21266;-72
2021/11/24 09:51:19;;;;;;;11.25;6.70;;;28.60;61.00;;;;;;1898957;75;21123;-71
2021/11/24 09:53:51;;;;;;;11.68;6.25;;;28.60;61.30;;;;;;1907267;74;21060;-71
2021/11/24 09:56:22;;;;;;;9.58;6.47;;;28.60;61.30;;;;;;1882461;75;21189;-71
2021/11/24 09:58:54;;;;;;;12.70;7.45;;;28.50;61.70;;;;;;1849063;76;21244;-72
2021/11/24 10:01:26;;;;;;;14.10;7.05;;;28.50;62.10;;;;;;1909754;73;21198;-73
2021/11/24 10:03:59;;;;;;;9.58;6.78;;;28.50;62.40;;;;;;1898880;73;21091;-72
2021/11/24 10:06:29;;;;;;;12.33;7.97;;;28.40;62.30;;;;;;1901867;74;21212;-72
2021/11/24 10:09:09;;;;;;;10.78;7.22;;;28.40;62.50;;;;;;1884890;75;21156;-71
2021/11/24 10:11:40;;;;;;;10.80;7.65;;;28.40;62.90;;;;;;1889191;74;21596;-73
2021/11/24 10:14:12;;;;;;;11.97;7.20;;;28.30;62.90;;;;;;1881468;76;21091;-72
2021/11/24 10:16:44;;;;;;;13.38;7.30;;;28.30;63.30;;;;;;1881317;74;21142;-72
2021/11/24 10:19:15;;;;;;;12.43;7.83;;;28.20;63.50;;;;;;1888568;75;21189;-70
2021/11/24 10:21:50;;;;;;;11.05;7.65;;;28.20;63.80;;;;;;1841975;76;21436;-71
2021/11/24 10:24:23;;;;;;;13.20;9.00;;;28.20;64.00;;;;;;1879840;74;21054;-71
2021/11/24 10:26:55;;;;;;;13.58;8.70;;;28.10;64.10;;;;;;1859934;76;21110;-72
2021/11/24 10:29:27;;;;;;;15.83;9.05;;;28.10;64.50;;;;;;1851178;76;21190;-70
2021/11/24 10:32:00;;;;;;;19.73;8.90;;;28.10;64.80;;;;;;1893261;74;21076;-71
2021/11/24 10:34:38;;;;;;;15.93;9.50;;;28.10;65.00;;;;;;1885194;75;21626;-71
2021/11/24 10:37:10;;;;;;;11.88;9.33;;;28.10;65.30;;;;;;1888993;75;21154;-71
2021/11/24 10:39:43;;;;;;;15.85;9.48;;;28.00;65.20;;;;;;1884677;74;21086;-72
2021/11/24 10:42:16;;;;;;;14.63;9.20;;;28.00;65.40;;;;;;1855985;76;21601;-73
2021/11/24 10:44:54;;;;;;;15.18;10.43;;;28.00;65.40;;;;;;1853722;76;21181;-73
2021/11/24 10:47:27;;;;;;;16.35;10.63;;;28.00;65.60;;;;;;1848254;76;21197;-72
2021/11/24 10:50:00;;;;;;;20.65;10.00;;;27.90;65.70;;;;;;1913683;73;21673;-72
2021/11/24 10:52:36;;;;;;;19.62;11.63;;;27.90;66.00;;;;;;1918017;73;21118;-71
2021/11/24 10:55:07;;;;;;;22.45;10.10;;;27.90;66.10;;;;;;1917201;73;21233;-71
2021/11/24 10:57:42;;;;;;;15.23;10.50;;;27.80;66.20;;;;;;1914222;74;21161;-71
2021/11/24 11:00:21;;;;;;;33.73;10.50;;;27.90;66.50;;;;;;1913727;74;21149;-72
2021/11/24 11:02:50;;;;;;;18.17;11.25;;;27.80;66.70;;;;;;1890533;74;21142;-73
2021/11/24 11:05:25;;;;;;;17.82;10.15;;;27.80;66.80;;;;;;1917002;73;21043;-72
2021/11/24 11:07:58;;;;;;;17.52;10.18;;;27.80;67.10;;;;;;1913672;73;21094;-71
2021/11/24 11:10:30;;;;;;;18.00;10.53;;;27.70;67.20;;;;;;1912902;74;21114;-71
2021/11/24 11:13:04;;;;;;;19.70;10.55;;;27.70;67.40;;;;;;1920372;74;21157;-71
2021/11/24 11:15:44;;;;;;;18.90;12.60;;;27.70;67.70;;;;;;1920407;74;21102;-71
2021/11/24 11:18:19;;;;;;;21.48;12.58;;;27.60;67.80;;;;;;1914995;73;21083;-72
2021/11/24 11:20:51;;;;;;;20.92;13.88;;;27.70;68.10;;;;;;1913402;74;21669;-71
2021/11/24 11:23:25;;;;;;;20.23;13.18;;;27.60;68.10;;;;;;1911913;73;21398;-70
2021/11/24 11:26:02;;;;;;;22.00;14.40;;;27.60;68.30;;;;;;1910832;73;21181;-71
2021/11/24 11:28:35;;;;;;;19.98;13.55;;;27.60;68.50;;;;;;1913730;73;21208;-72
2021/11/24 11:31:08;;;;;;;21.65;12.73;;;27.50;68.80;;;;;;1913540;74;21142;-71
2021/11/24 11:33:42;;;;;;;17.70;12.35;;;27.50;68.90;;;;;;1912699;73;21169;-72
2021/11/24 11:36:13;;;;;;;20.27;12.88;;;27.50;69.00;;;;;;1914580;73;21078;-71
2021/11/24 11:38:47;;;;;;;19.80;13.15;;;27.50;69.30;;;;;;1914363;73;21162;-70
2021/11/24 11:41:21;;;;;;;22.22;15.65;;;27.40;69.30;;;;;;1910508;73;21167;-71
2021/11/24 11:43:55;;;;;;;27.27;16.95;;;27.40;69.50;;;;;;1918578;73;21213;-71
2021/11/24 11:46:29;;;;;;;27.42;15.10;;;27.40;69.80;;;;;;1912042;73;21216;-71
2021/11/24 11:49:03;;;;;;;21.95;14.15;;;27.30;69.90;;;;;;1917278;73;21653;-71
2021/11/24 11:51:39;;;;;;;21.70;15.05;;;27.30;69.80;;;;;;1909161;73;21217;-72
2021/11/24 11:54:11;;;;;;;24.43;13.05;;;27.30;70.10;;;;;;1911527;73;21106;-71
2021/11/24 11:56:44;;;;;;;26.37;14.35;;;27.30;70.00;;;;;;1910195;73;21638;-71
2021/11/24 11:59:18;;;;;;;25.72;16.12;;;27.30;70.30;;;;;;1914914;73;21083;-72
2021/11/24 12:01:49;;;;;;;27.80;14.70;;;27.30;70.60;;;;;;1878527;75;21186;-73
2021/11/24 12:04:22;;;;;;;25.80;13.35;;;27.20;70.40;;;;;;1869103;76;21190;-71
2021/11/24 12:06:52;;;;;;;19.55;13.30;;;27.20;70.60;;;;;;1850458;77;21683;-73
2021/11/24 12:09:22;;;;;;;22.35;11.95;;;27.20;71.60;;;;;;1855256;76;21157;-73
2021/11/24 12:11:55;;;;;;;18.67;12.63;;;27.10;70.60;;;;;;1893568;75;21181;-74
2021/11/24 12:14:28;;;;;;;17.62;11.65;;;27.10;70.60;;;;;;1889130;75;21126;-71
2021/11/24 12:17:01;;;;;;;23.83;12.65;;;27.10;70.70;;;;;;1857517;76;21656;-73
2021/11/24 12:19:34;;;;;;;18.55;11.68;;;27.10;70.70;;;;;;1906966;73;21149;-72
2021/11/24 12:22:06;;;;;;;18.35;10.80;;;27.00;70.50;;;;;;1912279;73;22165;-71
2021/11/24 12:24:39;;;;;;;19.02;11.43;;;27.00;70.50;;;;;;1912396;73;21156;-71
2021/11/24 12:27:10;;;;;;;16.87;11.80;;;27.00;70.60;;;;;;1914714;73;21176;-70
2021/11/24 12:29:44;;;;;;;12.68;10.45;;;27.00;70.30;;;;;;1902835;73;21576;-73
2021/11/24 12:32:17;;;;;;;15.90;11.60;;;27.00;70.40;;;;;;1916084;73;22044;-72
2021/11/24 12:34:53;;;;;;;19.17;12.73;;;27.00;70.30;;;;;;1907250;74;21187;-72
2021/11/24 12:37:24;;;;;;;17.67;13.10;;;27.00;70.20;;;;;;1909569;75;21160;-71
2021/11/24 12:39:55;;;;;;;16.48;12.90;;;27.00;70.20;;;;;;1899443;74;21067;-73
2021/11/24 12:42:28;;;;;;;19.40;13.68;;;27.00;70.30;;;;;;1906848;74;21644;-73
2021/11/24 12:44:59;;;;;;;22.10;14.13;;;26.90;70.10;;;;;;1884669;75;21183;-72
2021/11/24 12:47:29;;;;;;;20.43;13.83;;;26.90;70.20;;;;;;1917938;73;21542;-71
2021/11/24 12:50:02;;;;;;;22.27;14.15;;;26.90;70.30;;;;;;1843176;76;21219;-71
2021/11/24 12:52:33;;;;;;;24.05;13.70;;;26.90;70.50;;;;;;1829947;77;21162;-70
2021/11/24 12:55:06;;;;;;;24.02;14.03;;;26.80;70.60;;;;;;1809345;79;21548;-73
2021/11/24 12:57:36;;;;;;;25.10;13.22;;;26.80;70.80;;;;;;1853456;76;21595;-71
2021/11/24 13:00:09;;;;;;;21.55;13.60;;;26.80;70.80;;;;;;1863639;75;21061;-70
2021/11/24 13:02:40;;;;;;;21.48;13.38;;;26.80;71.00;;;;;;1855330;75;21526;-71
2021/11/24 13:05:11;;;;;;;21.23;14.00;;;26.80;71.20;;;;;;1895332;74;21743;-70
2021/11/24 13:07:42;;;;;;;24.15;13.80;;;26.80;71.20;;;;;;1894821;74;21526;-71